createdAt,value
2022-07-30T00:02:11.941Z,5.38
2022-07-30T00:04:39.925Z,5.18
2022-07-30T00:07:07.893Z,6.07
2022-07-30T00:09:36.314Z,4.68
2022-07-30T00:12:05.419Z,6.65
2022-07-30T00:14:34.896Z,5.18
2022-07-30T00:17:03.888Z,4.57
2022-07-30T00:19:33.715Z,5.60
2022-07-30T00:22:01.692Z,5.70
2022-07-30T00:24:29.666Z,7.10
2022-07-30T00:26:57.800Z,5.97
2022-07-30T00:29:26.626Z,4.70
2022-07-30T00:31:56.507Z,5.82
2022-07-30T00:34:24.485Z,5.18
2022-07-30T00:36:54.203Z,6.18
2022-07-30T00:39:22.179Z,5.65
2022-07-30T00:41:57.825Z,6.07
2022-07-30T00:44:25.902Z,6.25
2022-07-30T00:46:53.883Z,6.13
2022-07-30T00:49:21.999Z,5.63
2022-07-30T00:51:50.306Z,6.85
2022-07-30T00:54:21.159Z,6.50
2022-07-30T00:56:49.542Z,5.10
2022-07-30T00:59:17.635Z,5.60
2022-07-30T01:01:45.737Z,5.25
2022-07-30T01:04:13.803Z,5.25
2022-07-30T01:06:41.860Z,4.93
2022-07-30T01:09:10.004Z,6.38
2022-07-30T01:11:41.505Z,5.05
2022-07-30T01:14:11.043Z,5.07
2022-07-30T01:16:41.703Z,5.18
2022-07-30T01:19:34.877Z,5.90
2022-07-30T01:22:20.218Z,5.40
2022-07-30T01:24:57.809Z,5.85
2022-07-30T01:27:29.902Z,5.05
2022-07-30T01:29:59.682Z,6.18
2022-07-30T01:32:29.220Z,4.65
2022-07-30T01:34:59.422Z,5.57
2022-07-30T01:37:29.337Z,6.18
2022-07-30T01:39:57.947Z,5.95
2022-07-30T01:42:29.867Z,6.65
2022-07-30T01:44:59.709Z,5.93
2022-07-30T01:47:29.073Z,6.25
2022-07-30T01:49:58.645Z,5.85
2022-07-30T01:52:31.013Z,5.82
2022-07-30T01:55:00.455Z,5.47
2022-07-30T01:57:30.816Z,6.25
2022-07-30T02:00:03.281Z,6.80
2022-07-30T02:02:44.770Z,6.20
2022-07-30T02:05:14.082Z,5.80
2022-07-30T02:07:49.461Z,5.50
2022-07-30T02:10:25.164Z,5.43
2022-07-30T02:12:57.583Z,5.22
2022-07-30T02:15:29.781Z,5.65
2022-07-30T02:18:03.612Z,6.65
2022-07-30T02:20:38.514Z,5.30
2022-07-30T02:23:11.672Z,7.57
2022-07-30T02:25:45.580Z,5.97
2022-07-30T02:28:16.692Z,6.30
2022-07-30T02:30:48.380Z,6.13
2022-07-30T02:33:20.516Z,5.60
2022-07-30T02:35:50.760Z,5.88
2022-07-30T02:38:20.745Z,4.97
2022-07-30T02:40:50.807Z,6.78
2022-07-30T02:43:25.037Z,7.00
2022-07-30T02:45:53.895Z,6.15
2022-07-30T02:48:34.526Z,6.53
2022-07-30T02:51:05.843Z,5.22
2022-07-30T02:53:34.681Z,6.72
2022-07-30T02:56:04.134Z,5.70
2022-07-30T02:58:38.170Z,5.55
2022-07-30T03:01:07.071Z,5.85
2022-07-30T03:03:36.283Z,6.85
2022-07-30T03:06:08.472Z,5.82
2022-07-30T03:08:37.963Z,6.72
2022-07-30T03:11:06.780Z,6.80
2022-07-30T03:13:36.505Z,5.05
2022-07-30T03:16:08.367Z,6.22
2022-07-30T03:21:09.886Z,5.45
2022-07-30T03:23:39.024Z,6.43
2022-07-30T03:26:09.943Z,5.80
2022-07-30T03:28:41.078Z,7.40
2022-07-30T03:31:10.613Z,5.70
2022-07-30T03:33:42.011Z,5.68
2022-07-30T03:36:11.016Z,6.13
2022-07-30T03:38:40.372Z,5.70
2022-07-30T03:41:09.951Z,7.20
2022-07-30T03:43:41.104Z,6.85
2022-07-30T03:46:11.265Z,6.90
2022-07-30T03:48:43.340Z,6.35
2022-07-30T03:51:12.570Z,6.38
2022-07-30T03:53:43.428Z,6.75
2022-07-30T03:56:49.733Z,6.18
2022-07-30T03:59:41.244Z,6.18
2022-07-30T04:02:09.299Z,6.43
2022-07-30T04:04:57.466Z,5.82
2022-07-30T04:07:25.535Z,5.40
2022-07-30T04:09:53.951Z,7.03
2022-07-30T04:12:54.050Z,6.40
2022-07-30T04:16:38.356Z,6.57
2022-07-30T04:18:16.750Z,8.00
2022-07-30T04:20:48.512Z,7.80
2022-07-30T04:23:17.043Z,5.90
2022-07-30T04:25:45.882Z,6.45
2022-07-30T04:28:15.281Z,5.90
2022-07-30T04:30:44.918Z,7.78
2022-07-30T04:33:12.993Z,7.78
2022-07-30T04:36:08.335Z,6.60
2022-07-30T04:38:39.120Z,7.05
2022-07-30T04:41:07.598Z,7.53
2022-07-30T04:43:55.514Z,8.23
2022-07-30T04:46:25.032Z,7.32
2022-07-30T04:48:54.472Z,7.90
2022-07-30T04:51:26.913Z,8.50
2022-07-30T04:53:56.785Z,7.57
2022-07-30T04:56:25.483Z,8.60
2022-07-30T04:58:54.812Z,9.40
2022-07-30T05:01:35.912Z,8.05
2022-07-30T05:04:11.495Z,9.35
2022-07-30T05:06:40.744Z,7.75
2022-07-30T05:09:09.466Z,8.18
2022-07-30T05:11:37.540Z,8.68
2022-07-30T05:14:05.822Z,9.20
2022-07-30T05:16:35.700Z,10.77
2022-07-30T05:19:07.433Z,8.45
2022-07-30T05:24:05.026Z,6.95
2022-07-30T05:26:37.827Z,8.35
2022-07-30T05:29:07.038Z,9.73
2022-07-30T05:31:56.928Z,9.90
2022-07-30T05:34:31.427Z,8.00
2022-07-30T05:36:59.827Z,8.55
2022-07-30T05:39:28.082Z,10.15
2022-07-30T05:41:56.229Z,10.15
2022-07-30T05:44:28.362Z,11.85
2022-07-30T05:46:58.145Z,10.48
2022-07-30T05:49:27.123Z,9.95
2022-07-30T05:52:02.011Z,10.35
2022-07-30T05:54:30.031Z,9.13
2022-07-30T05:57:16.322Z,10.45
2022-07-30T05:59:44.690Z,11.05
2022-07-30T06:02:46.190Z,9.90
2022-07-30T06:05:16.747Z,10.80
2022-07-30T06:07:45.152Z,10.80
2022-07-30T06:10:13.964Z,10.90
2022-07-30T06:12:42.504Z,10.95
2022-07-30T06:15:11.700Z,12.00
2022-07-30T06:17:51.091Z,11.48
2022-07-30T06:20:57.408Z,11.38
2022-07-30T06:23:45.616Z,11.95
2022-07-30T06:26:42.563Z,12.70
2022-07-30T06:29:10.807Z,14.85
2022-07-30T06:31:41.828Z,12.57
2022-07-30T06:34:13.741Z,12.30
2022-07-30T06:36:44.156Z,12.73
2022-07-30T06:39:55.956Z,11.52
2022-07-30T06:42:29.011Z,11.38
2022-07-30T06:45:16.842Z,10.30
2022-07-30T06:48:03.031Z,9.63
2022-07-30T06:50:34.602Z,11.23
2022-07-30T06:53:03.053Z,11.88
2022-07-30T06:55:47.308Z,12.40
2022-07-30T06:58:15.483Z,11.65
2022-07-30T07:01:12.960Z,11.15
2022-07-30T07:03:41.162Z,10.10
2022-07-30T07:06:11.036Z,9.82
2022-07-30T07:08:39.578Z,8.20
2022-07-30T07:11:09.770Z,9.90
2022-07-30T07:13:50.542Z,9.77
2022-07-30T07:16:27.160Z,9.63
2022-07-30T07:18:56.966Z,10.38
2022-07-30T07:21:26.395Z,11.15
2022-07-30T07:23:56.373Z,9.05
2022-07-30T07:26:43.040Z,9.50
2022-07-30T07:29:11.729Z,9.50
2022-07-30T07:32:06.838Z,10.13
2022-07-30T07:34:28.262Z,8.38
2022-07-30T07:36:57.861Z,8.77
2022-07-30T07:39:26.212Z,9.93
2022-07-30T07:41:54.285Z,7.97
2022-07-30T07:44:24.667Z,11.02
2022-07-30T07:46:52.609Z,9.68
2022-07-30T07:49:21.741Z,11.18
2022-07-30T07:51:53.567Z,8.95
2022-07-30T07:54:23.618Z,8.05
2022-07-30T07:59:40.053Z,8.10
2022-07-30T08:02:14.750Z,9.93
2022-07-30T08:04:53.976Z,8.40
2022-07-30T08:07:28.084Z,8.88
2022-07-30T08:10:29.697Z,8.30
2022-07-30T08:13:48.864Z,6.35
2022-07-30T08:16:23.104Z,7.72
2022-07-30T08:19:12.152Z,7.07
2022-07-30T08:21:49.839Z,5.75
2022-07-30T08:24:19.135Z,7.03
2022-07-30T08:26:48.489Z,6.82
2022-07-30T08:29:17.318Z,6.85
2022-07-30T08:31:46.455Z,7.68
2022-07-30T08:34:14.687Z,7.00
2022-07-30T08:36:42.942Z,8.43
2022-07-30T08:39:11.088Z,7.30
2022-07-30T08:41:39.094Z,6.78
2022-07-30T08:44:12.765Z,6.20
2022-07-30T08:46:47.447Z,6.28
2022-07-30T08:49:37.440Z,6.60
2022-07-30T08:52:08.650Z,6.82
2022-07-30T08:54:57.102Z,7.05
2022-07-30T08:57:25.886Z,9.45
2022-07-30T09:00:00.666Z,7.75
2022-07-30T09:02:32.251Z,6.90
2022-07-30T09:05:05.872Z,5.93
2022-07-30T09:07:34.879Z,7.35
2022-07-30T09:10:05.044Z,6.45
2022-07-30T09:12:39.417Z,6.72
2022-07-30T09:15:12.093Z,6.43
2022-07-30T09:17:57.110Z,5.93
2022-07-30T09:20:29.896Z,5.60
2022-07-30T09:23:01.090Z,6.80
2022-07-30T09:25:50.416Z,6.32
2022-07-30T09:28:37.342Z,5.63
2022-07-30T09:31:16.438Z,5.18
2022-07-30T09:34:03.331Z,5.72
2022-07-30T09:37:02.592Z,7.43
2022-07-30T09:39:59.134Z,7.88
2022-07-30T09:42:46.390Z,6.80
2022-07-30T09:45:16.676Z,5.13
2022-07-30T09:47:50.430Z,5.47
2022-07-30T09:50:30.509Z,6.60
2022-07-30T09:53:09.257Z,5.70
2022-07-30T09:55:41.192Z,5.00
2022-07-30T09:58:19.997Z,4.10
2022-07-30T10:01:00.162Z,5.00
2022-07-30T10:04:05.746Z,5.32
2022-07-30T10:06:55.351Z,4.55
2022-07-30T10:09:47.128Z,4.30
2022-07-30T10:12:16.987Z,4.85
2022-07-30T10:14:50.700Z,5.68
2022-07-30T10:17:21.449Z,4.32
2022-07-30T10:20:12.372Z,5.72
2022-07-30T10:23:08.739Z,4.20
2022-07-30T10:25:49.127Z,4.47
2022-07-30T10:28:47.830Z,4.57
2022-07-30T10:31:46.784Z,3.78
2022-07-30T10:34:04.456Z,4.28
2022-07-30T10:36:35.770Z,4.57
2022-07-30T10:39:04.244Z,5.88
2022-07-30T10:41:48.217Z,3.42
2022-07-30T10:44:42.604Z,4.55
2022-07-30T10:47:16.709Z,4.63
2022-07-30T10:50:11.706Z,4.18
2022-07-30T10:52:53.376Z,4.63
2022-07-30T10:55:36.679Z,2.80
2022-07-30T10:58:10.001Z,3.03
2022-07-30T11:01:00.253Z,4.18
2022-07-30T11:03:41.409Z,4.47
2022-07-30T11:06:35.218Z,5.13
2022-07-30T11:09:37.163Z,3.47
2022-07-30T11:12:16.076Z,2.92
2022-07-30T11:15:06.444Z,3.78
2022-07-30T11:20:30.079Z,2.88
2022-07-30T11:23:14.275Z,2.67
2022-07-30T11:25:51.143Z,3.38
2022-07-30T11:28:37.738Z,3.17
2022-07-30T11:31:36.939Z,3.10
2022-07-30T11:34:30.666Z,3.10
2022-07-30T11:37:18.215Z,2.90
2022-07-30T11:40:10.446Z,2.80
2022-07-30T11:42:42.158Z,3.30
2022-07-30T11:45:33.031Z,2.97
2022-07-30T11:48:01.528Z,4.43
2022-07-30T11:50:32.906Z,3.22
2022-07-30T11:53:03.090Z,3.28
2022-07-30T11:55:33.308Z,3.63
2022-07-30T11:58:04.810Z,4.43
2022-07-30T12:00:38.151Z,3.60
2022-07-30T12:03:14.462Z,3.95
2022-07-30T12:05:43.532Z,3.33
2022-07-30T12:08:33.396Z,4.45
2022-07-30T12:11:02.211Z,2.97
2022-07-30T12:13:43.461Z,4.05
2022-07-30T12:16:14.666Z,4.13
2022-07-30T12:18:43.194Z,2.47
2022-07-30T12:21:13.647Z,3.25
2022-07-30T12:23:43.465Z,3.60
2022-07-30T12:26:22.357Z,4.78
2022-07-30T12:28:53.152Z,3.30
2022-07-30T12:31:21.607Z,3.85
2022-07-30T12:33:49.508Z,3.88
2022-07-30T12:36:29.432Z,3.10
2022-07-30T12:38:58.248Z,4.15
2022-07-30T12:41:44.297Z,2.97
2022-07-30T12:44:37.488Z,2.80
2022-07-30T12:47:07.541Z,2.92
2022-07-30T12:49:36.593Z,3.50
2022-07-30T12:52:28.362Z,3.13
2022-07-30T12:55:08.853Z,4.22
2022-07-30T12:57:56.939Z,2.65
2022-07-30T13:00:28.453Z,2.55
2022-07-30T13:02:56.755Z,4.95
2022-07-30T13:05:49.885Z,2.88
2022-07-30T13:08:18.707Z,2.88
2022-07-30T13:11:00.769Z,2.63
2022-07-30T13:13:29.372Z,2.13
2022-07-30T13:16:04.218Z,2.63
2022-07-30T13:18:35.913Z,2.58
2022-07-30T13:21:05.289Z,3.50
2022-07-30T13:23:33.241Z,2.58
2022-07-30T13:26:01.637Z,2.28
2022-07-30T13:28:34.518Z,2.78
2022-07-30T13:31:04.768Z,1.95
2022-07-30T13:33:34.750Z,2.55
2022-07-30T13:36:03.302Z,2.80
2022-07-30T13:38:43.802Z,2.25
2022-07-30T13:43:59.331Z,1.80
2022-07-30T13:49:39.445Z,2.63
2022-07-30T13:52:12.020Z,4.03
2022-07-30T13:54:44.870Z,1.85
2022-07-30T13:57:13.815Z,2.70
2022-07-30T13:59:43.652Z,1.63
2022-07-30T14:02:13.193Z,1.90
2022-07-30T14:04:41.187Z,2.13
2022-07-30T14:07:09.113Z,2.70
2022-07-30T14:09:44.595Z,2.92
2022-07-30T14:12:15.194Z,2.78
2022-07-30T14:14:43.143Z,2.40
2022-07-30T14:17:12.539Z,2.17
2022-07-30T14:19:40.771Z,2.40
2022-07-30T14:22:08.770Z,3.28
2022-07-30T14:24:36.801Z,1.75
2022-07-30T14:27:05.577Z,2.45
2022-07-30T14:29:33.575Z,2.00
2022-07-30T14:32:01.492Z,2.92
2022-07-30T14:34:30.759Z,2.90
2022-07-30T14:36:58.741Z,2.20
2022-07-30T14:39:26.615Z,1.95
2022-07-30T14:41:55.671Z,2.33
2022-07-30T14:44:24.353Z,2.05
2022-07-30T14:46:52.950Z,1.77
2022-07-30T14:49:23.892Z,2.05
2022-07-30T14:51:55.591Z,1.87
2022-07-30T14:54:23.809Z,1.35
2022-07-30T14:56:56.250Z,1.38
2022-07-30T14:59:26.755Z,2.35
2022-07-30T15:01:55.294Z,2.13
2022-07-30T15:04:23.789Z,1.73
2022-07-30T15:06:53.116Z,4.75
2022-07-30T15:09:21.157Z,1.77
2022-07-30T15:12:08.338Z,2.25
2022-07-30T15:14:38.259Z,1.90
2022-07-30T15:20:58.423Z,3.20
2022-07-30T15:23:33.352Z,2.67
2022-07-30T15:30:07.786Z,1.92
2022-07-30T15:32:48.760Z,2.15
2022-07-30T15:35:16.971Z,2.20
2022-07-30T15:37:45.118Z,2.17
2022-07-30T15:40:14.545Z,2.13
2022-07-30T15:42:43.687Z,2.83
2022-07-30T15:45:17.782Z,3.08
2022-07-30T15:47:46.312Z,2.40
2022-07-30T15:50:15.447Z,3.25
2022-07-30T15:52:43.601Z,2.55
2022-07-30T15:55:12.196Z,1.60
2022-07-30T15:57:41.648Z,1.55
2022-07-30T16:00:10.711Z,2.60
2022-07-30T16:02:43.559Z,2.35
2022-07-30T16:05:14.207Z,2.83
2022-07-30T16:07:43.631Z,2.45
2022-07-30T16:10:12.126Z,3.38
2022-07-30T16:12:42.070Z,2.80
2022-07-30T16:15:10.988Z,2.13
2022-07-30T16:17:39.032Z,1.70
2022-07-30T16:20:07.983Z,1.75
2022-07-30T16:22:36.696Z,2.30
2022-07-30T16:25:04.929Z,4.10
2022-07-30T16:27:32.891Z,4.57
2022-07-30T16:30:02.242Z,4.63
2022-07-30T16:32:30.231Z,3.97
2022-07-30T16:34:58.189Z,4.07
2022-07-30T16:37:26.183Z,2.42
2022-07-30T16:39:54.408Z,2.72
2022-07-30T16:42:22.409Z,3.05
2022-07-30T16:44:50.425Z,2.83
2022-07-30T16:47:19.704Z,4.32
2022-07-30T16:49:47.697Z,4.85
2022-07-30T16:52:17.074Z,4.80
2022-07-30T16:54:45.208Z,3.72
2022-07-30T16:57:13.153Z,3.40
2022-07-30T16:59:42.229Z,2.40
2022-07-30T17:02:12.320Z,2.30
2022-07-30T17:04:41.801Z,3.00
2022-07-30T17:07:09.803Z,4.53
2022-07-30T17:09:37.771Z,2.75
2022-07-30T17:12:07.952Z,1.85
2022-07-30T17:14:40.770Z,2.95
2022-07-30T17:17:13.575Z,3.03
2022-07-30T17:19:43.970Z,4.72
2022-07-30T17:22:12.121Z,3.80
2022-07-30T17:24:40.098Z,2.90
2022-07-30T17:27:08.235Z,2.13
2022-07-30T17:29:50.310Z,3.35
2022-07-30T17:32:19.951Z,5.40
2022-07-30T17:34:49.865Z,4.20
2022-07-30T17:37:18.337Z,2.83
2022-07-30T17:40:19.818Z,4.07
2022-07-30T17:42:34.625Z,2.67
2022-07-30T17:45:02.761Z,2.00
2022-07-30T17:47:30.844Z,2.33
2022-07-30T17:50:00.394Z,2.03
2022-07-30T17:52:39.762Z,2.55
2022-07-30T17:55:11.211Z,3.00
2022-07-30T17:57:39.505Z,2.65
2022-07-30T18:00:09.882Z,1.95
2022-07-30T18:02:37.904Z,3.20
2022-07-30T18:05:08.954Z,2.55
2022-07-30T18:07:37.118Z,2.67
2022-07-30T18:10:05.707Z,3.35
2022-07-30T18:12:34.325Z,2.78
2022-07-30T18:15:03.004Z,3.90
2022-07-30T18:17:31.191Z,3.33
2022-07-30T18:19:59.200Z,2.38
2022-07-30T18:22:29.858Z,3.13
2022-07-30T18:25:00.838Z,3.17
2022-07-30T18:27:29.840Z,2.90
2022-07-30T18:29:58.232Z,3.35
2022-07-30T18:32:26.332Z,4.10
2022-07-30T18:34:54.485Z,3.70
2022-07-30T18:37:22.578Z,4.35
2022-07-30T18:39:52.001Z,3.25
2022-07-30T18:42:20.051Z,3.00
2022-07-30T18:44:48.352Z,2.20
2022-07-30T18:47:18.233Z,2.63
2022-07-30T18:49:50.117Z,3.22
2022-07-30T18:52:18.650Z,3.35
2022-07-30T18:54:46.736Z,3.08
2022-07-30T18:57:16.108Z,2.35
2022-07-30T18:59:44.260Z,3.38
2022-07-30T19:02:12.381Z,2.53
2022-07-30T19:04:40.348Z,3.45
2022-07-30T19:07:08.360Z,3.15
2022-07-30T19:09:36.652Z,2.85
2022-07-30T19:12:05.439Z,2.53
2022-07-30T19:14:35.274Z,2.95
2022-07-30T19:17:03.291Z,2.67
2022-07-30T19:19:41.969Z,3.50
2022-07-30T19:22:10.176Z,2.97
2022-07-30T19:24:38.328Z,3.22
2022-07-30T19:27:08.973Z,3.22
2022-07-30T19:29:42.207Z,2.90
2022-07-30T19:32:10.249Z,3.20
2022-07-30T19:34:39.492Z,2.58
2022-07-30T19:37:07.737Z,2.83
2022-07-30T19:39:36.019Z,3.42
2022-07-30T19:42:04.324Z,2.90
2022-07-30T19:44:32.814Z,3.28
2022-07-30T19:47:03.444Z,2.40
2022-07-30T19:49:36.504Z,3.90
2022-07-30T19:52:11.357Z,2.95
2022-07-30T19:54:51.754Z,2.13
2022-07-30T19:57:20.788Z,3.00
2022-07-30T19:59:59.923Z,4.68
2022-07-30T20:02:41.093Z,2.80
2022-07-30T20:05:11.747Z,3.80
2022-07-30T20:07:43.075Z,3.55
2022-07-30T20:10:13.108Z,3.78
2022-07-30T20:12:49.000Z,2.85
2022-07-30T20:15:18.107Z,2.78
2022-07-30T20:17:47.482Z,2.75
2022-07-30T20:20:16.000Z,2.90
2022-07-30T20:22:44.253Z,2.30
2022-07-30T20:25:13.567Z,2.47
2022-07-30T20:27:42.052Z,3.35
2022-07-30T20:30:12.691Z,3.70
2022-07-30T20:32:46.405Z,3.40
2022-07-30T20:35:17.272Z,3.42
2022-07-30T20:37:54.809Z,4.10
2022-07-30T20:40:24.370Z,3.95
2022-07-30T20:42:55.992Z,4.32
2022-07-30T20:45:25.334Z,4.28
2022-07-30T20:48:08.485Z,3.75
2022-07-30T20:50:49.214Z,4.15
2022-07-30T20:53:17.576Z,3.53
2022-07-30T20:55:46.008Z,3.72
2022-07-30T20:58:16.600Z,3.00
2022-07-30T21:00:49.817Z,3.83
2022-07-30T21:03:21.385Z,2.90
2022-07-30T21:05:52.747Z,3.40
2022-07-30T21:08:21.335Z,3.35
2022-07-30T21:10:54.964Z,3.08
2022-07-30T21:13:26.189Z,3.15
2022-07-30T21:16:02.355Z,3.17
2022-07-30T21:18:32.741Z,4.38
2022-07-30T21:21:05.710Z,3.88
2022-07-30T21:23:34.646Z,3.15
2022-07-30T21:26:07.099Z,3.20
2022-07-30T21:28:41.662Z,4.07
2022-07-30T21:31:09.798Z,3.50
2022-07-30T21:33:38.356Z,3.72
2022-07-30T21:36:10.427Z,3.78
2022-07-30T21:38:42.004Z,3.53
2022-07-30T21:41:14.416Z,3.33
2022-07-30T21:43:44.342Z,4.40
2022-07-30T21:46:13.078Z,4.57
2022-07-30T21:48:41.354Z,3.80
2022-07-30T21:51:11.555Z,3.60
2022-07-30T21:53:45.096Z,3.47
2022-07-30T21:56:15.800Z,4.65
2022-07-30T21:58:44.674Z,3.90
2022-07-30T22:01:17.510Z,4.22
2022-07-30T22:04:00.603Z,3.72
2022-07-30T22:06:34.737Z,2.90
2022-07-30T22:09:09.921Z,3.70
2022-07-30T22:11:47.347Z,4.07
2022-07-30T22:17:04.410Z,3.20
2022-07-30T22:19:32.579Z,3.75
2022-07-30T22:22:05.250Z,3.78
2022-07-30T22:24:50.149Z,4.05
2022-07-30T22:27:18.126Z,5.78
2022-07-30T22:29:50.021Z,4.45
2022-07-30T22:32:18.212Z,4.00
2022-07-30T22:34:46.362Z,3.22
2022-07-30T22:37:21.238Z,3.40
2022-07-30T22:39:50.738Z,4.68
2022-07-30T22:42:24.097Z,5.47
2022-07-30T22:44:53.094Z,3.80
2022-07-30T22:50:11.612Z,5.45
2022-07-30T22:52:44.179Z,4.07
2022-07-30T22:55:22.354Z,4.88
2022-07-30T22:57:50.580Z,4.95
2022-07-30T23:00:27.213Z,4.40
2022-07-30T23:02:57.463Z,4.70
2022-07-30T23:05:25.947Z,5.30
2022-07-30T23:07:55.844Z,4.78
2022-07-30T23:10:24.783Z,5.53
2022-07-30T23:12:28.468Z,3.92
2022-07-30T23:12:30.469Z,3.60
2022-07-30T23:12:54.006Z,3.30
2022-07-30T23:15:22.820Z,3.88
2022-07-30T23:17:50.906Z,5.88
2022-07-30T23:20:21.372Z,4.65
2022-07-30T23:22:49.906Z,4.13
2022-07-30T23:25:19.428Z,4.57
2022-07-30T23:27:47.683Z,5.43
2022-07-30T23:30:16.084Z,4.07
2022-07-30T23:32:44.105Z,4.28
2022-07-30T23:35:12.503Z,5.05
2022-07-30T23:37:48.620Z,3.75
2022-07-30T23:40:19.627Z,5.50
2022-07-30T23:42:47.844Z,5.78
2022-07-30T23:45:16.122Z,4.40
2022-07-30T23:48:00.206Z,4.60
2022-07-30T23:50:32.340Z,4.80
2022-07-30T23:53:00.697Z,4.65
2022-07-30T23:55:31.592Z,3.60
2022-07-30T23:58:00.107Z,4.18
